createdAt,value
2023-02-15T00:00:11.890Z,34.55
2023-02-15T00:02:40.117Z,33.67
2023-02-15T00:05:09.363Z,33.78
2023-02-15T00:07:38.000Z,33.55
2023-02-15T00:10:06.116Z,32.47
2023-02-15T00:12:33.730Z,34.75
2023-02-15T00:15:01.546Z,32.75
2023-02-15T00:17:31.227Z,31.15
2023-02-15T00:19:59.267Z,31.27
2023-02-15T00:22:27.436Z,30.30
2023-02-15T00:24:57.587Z,31.05
2023-02-15T00:27:27.075Z,28.17
2023-02-15T00:29:54.676Z,29.40
2023-02-15T00:32:22.600Z,27.10
2023-02-15T00:34:49.526Z,27.42
2023-02-15T00:37:17.183Z,25.77
2023-02-15T00:39:45.435Z,24.55
2023-02-15T00:42:12.973Z,23.65
2023-02-15T00:44:40.313Z,23.88
2023-02-15T00:47:07.215Z,21.73
2023-02-15T00:49:35.022Z,21.27
2023-02-15T00:52:03.492Z,20.05
2023-02-15T00:54:32.081Z,20.77
2023-02-15T00:57:01.665Z,20.08
2023-02-15T00:59:29.304Z,20.23
2023-02-15T01:01:57.892Z,20.75
2023-02-15T01:04:26.909Z,19.92
2023-02-15T01:06:54.650Z,19.98
2023-02-15T01:09:24.456Z,18.45
2023-02-15T01:11:51.779Z,20.23
2023-02-15T01:14:20.488Z,20.42
2023-02-15T01:16:49.246Z,19.67
2023-02-15T01:19:18.665Z,19.45
2023-02-15T01:21:47.696Z,18.25
2023-02-15T01:24:16.802Z,19.00
2023-02-15T01:26:44.022Z,17.80
2023-02-15T01:29:12.027Z,18.70
2023-02-15T01:31:40.656Z,18.17
2023-02-15T01:34:08.297Z,19.08
2023-02-15T01:36:37.889Z,19.77
2023-02-15T01:39:05.974Z,18.52
2023-02-15T01:41:34.254Z,19.08
2023-02-15T01:44:05.272Z,17.55
2023-02-15T01:46:38.000Z,18.77
2023-02-15T01:49:16.918Z,18.90
2023-02-15T01:51:48.219Z,20.20
2023-02-15T01:54:19.171Z,19.05
2023-02-15T01:56:49.492Z,18.15
2023-02-15T01:59:25.632Z,19.63
2023-02-15T02:01:58.001Z,20.77
2023-02-15T02:04:36.730Z,19.00
2023-02-15T02:07:10.940Z,20.30
2023-02-15T02:09:39.059Z,19.48
2023-02-15T02:12:09.060Z,19.77
2023-02-15T02:14:38.106Z,18.67
2023-02-15T02:17:17.593Z,19.83
2023-02-15T02:20:23.055Z,19.73
2023-02-15T02:23:05.875Z,20.38
2023-02-15T02:25:53.651Z,20.92
2023-02-15T02:28:56.965Z,19.80
2023-02-15T02:31:54.599Z,20.70
2023-02-15T02:34:33.199Z,20.30
2023-02-15T02:37:13.443Z,19.38
2023-02-15T02:39:58.335Z,18.55
2023-02-15T02:42:45.464Z,20.10
2023-02-15T02:45:17.560Z,20.15
2023-02-15T02:47:51.742Z,20.00
2023-02-15T02:50:26.297Z,20.90
2023-02-15T02:52:57.436Z,19.17
2023-02-15T02:55:40.371Z,19.15
2023-02-15T02:58:13.352Z,20.02
2023-02-15T03:01:03.909Z,21.60
2023-02-15T03:03:43.865Z,20.58
2023-02-15T03:06:19.510Z,21.27
2023-02-15T03:08:56.717Z,20.33
2023-02-15T03:11:25.371Z,20.48
2023-02-15T03:13:54.097Z,20.75
2023-02-15T03:16:31.060Z,20.90
2023-02-15T03:19:16.437Z,20.58
2023-02-15T03:21:59.518Z,20.20
2023-02-15T03:24:35.415Z,18.35
2023-02-15T03:27:07.660Z,19.30
2023-02-15T03:29:37.863Z,18.13
2023-02-15T03:32:09.027Z,19.92
2023-02-15T03:34:37.970Z,20.45
2023-02-15T03:37:16.638Z,19.63
2023-02-15T03:39:55.088Z,19.38
2023-02-15T03:42:28.749Z,20.40
2023-02-15T03:45:03.510Z,21.27
2023-02-15T03:47:35.600Z,20.05
2023-02-15T03:50:31.488Z,20.83
2023-02-15T03:53:03.127Z,20.02
2023-02-15T03:55:31.432Z,21.00
2023-02-15T03:58:15.507Z,19.85
2023-02-15T04:01:06.604Z,19.48
2023-02-15T04:03:40.772Z,20.67
2023-02-15T04:06:08.046Z,19.30
2023-02-15T04:08:50.756Z,21.15
2023-02-15T04:11:18.083Z,21.42
2023-02-15T04:13:47.310Z,22.33
2023-02-15T04:16:14.524Z,19.45
2023-02-15T04:18:59.957Z,21.45
2023-02-15T04:21:47.274Z,20.10
2023-02-15T04:24:31.833Z,21.40
2023-02-15T04:27:00.695Z,21.75
2023-02-15T04:29:30.888Z,21.63
2023-02-15T04:32:03.179Z,21.35
2023-02-15T04:34:32.208Z,20.35
2023-02-15T04:36:59.779Z,20.88
2023-02-15T04:39:28.267Z,22.42
2023-02-15T04:41:57.049Z,21.23
2023-02-15T04:44:26.197Z,21.50
2023-02-15T04:46:55.988Z,21.02
2023-02-15T04:49:25.606Z,21.38
2023-02-15T04:51:53.527Z,23.83
2023-02-15T04:54:21.166Z,22.23
2023-02-15T04:56:50.413Z,22.17
2023-02-15T04:59:17.684Z,22.95
2023-02-15T05:01:46.860Z,22.63
2023-02-15T05:04:14.919Z,21.20
2023-02-15T05:06:43.378Z,23.75
2023-02-15T05:09:12.437Z,23.35
2023-02-15T05:11:41.024Z,24.45
2023-02-15T05:14:08.831Z,21.02
2023-02-15T05:16:36.925Z,24.48
2023-02-15T05:19:04.265Z,21.35
2023-02-15T05:21:32.383Z,23.20
2023-02-15T05:23:59.929Z,23.17
2023-02-15T05:26:42.806Z,22.35
2023-02-15T05:29:10.642Z,24.33
2023-02-15T05:31:39.604Z,23.63
2023-02-15T05:34:07.262Z,22.08
2023-02-15T05:36:35.642Z,22.35
2023-02-15T05:39:05.129Z,24.55
2023-02-15T05:41:32.152Z,21.83
2023-02-15T05:43:59.981Z,23.20
2023-02-15T05:46:28.705Z,24.38
2023-02-15T05:48:57.581Z,23.38
2023-02-15T05:51:25.462Z,22.65
2023-02-15T05:53:53.571Z,23.10
2023-02-15T05:56:20.366Z,23.10
2023-02-15T05:58:48.763Z,24.10
2023-02-15T06:01:24.803Z,23.33
2023-02-15T06:03:54.129Z,23.40
2023-02-15T06:06:24.440Z,23.17
2023-02-15T06:08:56.953Z,23.20
2023-02-15T06:11:26.250Z,25.00
2023-02-15T06:13:54.348Z,24.35
2023-02-15T06:16:22.736Z,21.88
2023-02-15T06:18:51.840Z,23.40
2023-02-15T06:21:21.291Z,23.10
2023-02-15T06:23:51.075Z,28.42
2023-02-15T06:26:18.535Z,25.02
2023-02-15T06:28:46.799Z,26.88
2023-02-15T06:31:16.394Z,24.75
2023-02-15T06:33:44.201Z,24.80
2023-02-15T06:36:11.054Z,28.60
2023-02-15T06:38:40.196Z,26.42
2023-02-15T06:41:07.212Z,25.38
2023-02-15T06:43:36.796Z,23.45
2023-02-15T06:46:05.997Z,24.05
2023-02-15T06:48:34.210Z,24.63
2023-02-15T06:51:02.389Z,22.17
2023-02-15T06:53:30.865Z,23.42
2023-02-15T06:56:08.252Z,21.67
2023-02-15T06:58:38.135Z,23.27
2023-02-15T07:01:06.357Z,23.42
2023-02-15T07:03:36.906Z,23.58
2023-02-15T07:06:10.179Z,21.48
2023-02-15T07:08:40.817Z,22.42
2023-02-15T07:11:24.539Z,22.48
2023-02-15T07:13:54.252Z,22.85
2023-02-15T07:16:23.653Z,21.42
2023-02-15T07:18:52.554Z,21.48
2023-02-15T07:21:22.216Z,22.42
2023-02-15T07:23:51.305Z,20.75
2023-02-15T07:26:18.837Z,21.23
2023-02-15T07:28:48.396Z,21.85
2023-02-15T07:31:16.913Z,21.45
2023-02-15T07:33:45.447Z,21.38
2023-02-15T07:36:16.069Z,22.23
2023-02-15T07:38:45.686Z,22.63
2023-02-15T07:41:17.519Z,21.38
2023-02-15T07:43:47.826Z,23.05
2023-02-15T07:46:18.385Z,24.35
2023-02-15T07:48:47.423Z,24.17
2023-02-15T07:51:17.606Z,20.88
2023-02-15T07:53:47.102Z,22.20
2023-02-15T07:56:18.597Z,20.75
2023-02-15T07:58:56.532Z,20.23
2023-02-15T08:01:31.392Z,20.67
2023-02-15T08:04:01.272Z,21.10
2023-02-15T08:06:33.852Z,19.92
2023-02-15T08:09:03.887Z,19.25
2023-02-15T08:11:36.109Z,20.08
2023-02-15T08:14:12.522Z,20.90
2023-02-15T08:16:46.073Z,22.23
2023-02-15T08:19:19.283Z,22.20
2023-02-15T08:21:51.286Z,22.67
2023-02-15T08:24:23.270Z,25.10
2023-02-15T08:26:52.992Z,24.52
2023-02-15T08:29:25.521Z,27.27
2023-02-15T08:31:57.826Z,27.65
2023-02-15T08:34:26.963Z,28.63
2023-02-15T08:36:56.707Z,28.45
2023-02-15T08:39:25.222Z,28.00
2023-02-15T08:41:55.605Z,29.45
2023-02-15T08:44:24.824Z,30.17
2023-02-15T08:46:53.348Z,29.15
2023-02-15T08:49:23.706Z,29.75
2023-02-15T08:51:52.035Z,29.15
2023-02-15T08:54:23.888Z,32.95
2023-02-15T08:56:53.132Z,29.73
2023-02-15T08:59:24.004Z,29.67
2023-02-15T09:01:55.935Z,29.95
2023-02-15T09:04:24.711Z,31.17
2023-02-15T09:06:55.746Z,32.00
2023-02-15T09:09:24.382Z,32.35
2023-02-15T09:11:59.068Z,29.88
2023-02-15T09:14:29.488Z,28.65
2023-02-15T09:16:57.701Z,29.48
2023-02-15T09:19:27.134Z,31.02
2023-02-15T09:21:56.513Z,28.13
2023-02-15T09:24:25.550Z,30.20
2023-02-15T09:26:55.485Z,30.83
2023-02-15T09:29:24.847Z,29.05
2023-02-15T09:31:54.773Z,28.30
2023-02-15T09:34:25.376Z,28.48
2023-02-15T09:36:54.594Z,27.85
2023-02-15T09:39:25.986Z,28.88
2023-02-15T09:42:15.303Z,27.63
2023-02-15T09:44:59.756Z,27.90
2023-02-15T09:47:39.904Z,27.65
2023-02-15T09:50:18.741Z,28.25
2023-02-15T09:53:08.401Z,29.92
2023-02-15T09:55:52.783Z,29.23
2023-02-15T09:58:36.916Z,29.50
2023-02-15T10:01:28.385Z,29.25
2023-02-15T10:04:32.520Z,29.73
2023-02-15T10:07:35.933Z,29.35
2023-02-15T10:10:24.531Z,29.77
2023-02-15T10:13:23.623Z,29.90
2023-02-15T10:16:04.452Z,30.60
2023-02-15T10:18:47.832Z,33.15
2023-02-15T10:21:40.648Z,37.88
2023-02-15T10:24:46.505Z,35.90
2023-02-15T10:27:22.727Z,34.40
2023-02-15T10:30:06.712Z,35.30
2023-02-15T10:32:55.391Z,40.15
2023-02-15T10:35:28.413Z,37.15
2023-02-15T10:38:19.100Z,35.50
2023-02-15T10:41:17.897Z,37.63
2023-02-15T10:43:59.695Z,38.75
2023-02-15T10:46:43.463Z,40.33
2023-02-15T10:49:28.286Z,38.58
2023-02-15T10:52:15.481Z,42.65
2023-02-15T10:54:50.267Z,42.30
2023-02-15T10:57:40.134Z,41.63
2023-02-15T11:00:24.576Z,40.90
2023-02-15T11:03:19.262Z,29.88
2023-02-15T11:06:06.326Z,27.48
2023-02-15T11:08:39.498Z,26.38
2023-02-15T11:11:16.617Z,30.38
2023-02-15T11:13:51.354Z,32.97
2023-02-15T11:16:26.606Z,31.40
2023-02-15T11:19:08.306Z,33.47
2023-02-15T11:21:42.295Z,32.78
2023-02-15T11:24:16.882Z,34.05
2023-02-15T11:26:51.949Z,36.72
2023-02-15T11:29:29.672Z,37.95
2023-02-15T11:32:03.596Z,37.58
2023-02-15T11:34:46.304Z,39.05
2023-02-15T11:37:20.572Z,39.13
2023-02-15T11:39:52.801Z,37.58
2023-02-15T11:42:24.851Z,38.13
2023-02-15T11:45:06.442Z,38.03
2023-02-15T11:47:34.086Z,38.28
2023-02-15T11:50:03.706Z,39.33
2023-02-15T11:52:31.738Z,40.15
2023-02-15T11:54:59.968Z,35.33
2023-02-15T11:57:39.820Z,35.45
2023-02-15T12:00:18.970Z,33.00
2023-02-15T12:02:53.255Z,36.33
2023-02-15T12:05:26.319Z,36.15
2023-02-15T12:08:02.726Z,40.78
2023-02-15T12:10:36.978Z,41.63
2023-02-15T12:13:22.080Z,41.90
2023-02-15T12:15:54.710Z,40.33
2023-02-15T12:18:35.330Z,38.95
2023-02-15T12:21:15.374Z,37.88
2023-02-15T12:23:50.548Z,38.35
2023-02-15T12:26:30.110Z,37.13
2023-02-15T12:29:03.819Z,38.05
2023-02-15T12:31:36.697Z,34.40
2023-02-15T12:34:15.453Z,39.45
2023-02-15T12:36:55.946Z,37.38
2023-02-15T12:39:27.798Z,38.58
2023-02-15T12:41:58.008Z,35.40
2023-02-15T12:44:30.924Z,37.78
2023-02-15T12:47:05.639Z,35.97
2023-02-15T12:49:35.605Z,38.40
2023-02-15T12:52:09.559Z,37.17
2023-02-15T12:54:43.581Z,42.90
2023-02-15T12:57:31.776Z,41.92
2023-02-15T13:00:02.719Z,40.03
2023-02-15T13:02:36.281Z,41.28
2023-02-15T13:05:27.913Z,37.83
2023-02-15T13:08:01.239Z,38.45
2023-02-15T13:10:34.306Z,38.42
2023-02-15T13:13:04.625Z,36.53
2023-02-15T13:15:38.415Z,35.58
2023-02-15T13:18:14.259Z,33.88
2023-02-15T13:20:46.758Z,36.55
2023-02-15T13:23:30.494Z,35.90
2023-02-15T13:26:04.728Z,38.60
2023-02-15T13:28:45.480Z,37.70
2023-02-15T13:31:20.217Z,40.83
2023-02-15T13:33:56.687Z,38.58
2023-02-15T13:36:43.461Z,39.45
2023-02-15T13:39:38.712Z,39.25
2023-02-15T13:42:23.044Z,35.92
2023-02-15T13:44:54.385Z,38.67
2023-02-15T13:47:28.840Z,39.00
2023-02-15T13:50:06.137Z,34.33
2023-02-15T13:52:44.967Z,32.85
2023-02-15T13:55:28.879Z,32.13
2023-02-15T13:57:57.905Z,35.95
2023-02-15T14:00:29.186Z,40.90
2023-02-15T14:03:19.855Z,40.03
2023-02-15T14:06:07.140Z,40.70
2023-02-15T14:08:51.864Z,40.40
2023-02-15T14:11:37.599Z,36.45
2023-02-15T14:14:22.068Z,36.55
2023-02-15T14:17:07.136Z,38.65
2023-02-15T14:19:38.017Z,37.50
2023-02-15T14:22:17.676Z,36.75
2023-02-15T14:25:03.505Z,37.10
2023-02-15T14:27:45.937Z,35.65
2023-02-15T14:30:21.590Z,41.25
2023-02-15T14:32:56.597Z,40.63
2023-02-15T14:35:29.659Z,43.28
2023-02-15T14:38:00.302Z,44.15
2023-02-15T14:40:53.549Z,45.70
2023-02-15T14:43:44.600Z,42.35
2023-02-15T14:46:27.088Z,41.00
2023-02-15T14:48:59.352Z,43.10
2023-02-15T14:51:44.086Z,41.58
2023-02-15T14:54:33.888Z,37.05
2023-02-15T14:57:03.290Z,41.92
2023-02-15T14:59:58.031Z,41.35
2023-02-15T15:02:32.186Z,40.80
2023-02-15T15:05:04.241Z,40.00
2023-02-15T15:07:52.258Z,41.95
2023-02-15T15:10:21.898Z,36.78
2023-02-15T15:12:50.725Z,37.80
2023-02-15T15:15:38.911Z,35.58
2023-02-15T15:18:12.008Z,37.30
2023-02-15T15:20:51.266Z,40.90
2023-02-15T15:23:21.661Z,37.20
2023-02-15T15:25:50.996Z,39.85
2023-02-15T15:28:34.750Z,37.03
2023-02-15T15:31:22.751Z,38.88
2023-02-15T15:34:21.766Z,36.30
2023-02-15T15:37:20.681Z,39.35
2023-02-15T15:40:04.585Z,39.75
2023-02-15T15:42:53.480Z,39.33
2023-02-15T15:45:41.338Z,40.05
2023-02-15T15:48:40.218Z,39.47
2023-02-15T15:51:13.771Z,37.72
2023-02-15T15:53:47.065Z,36.55
2023-02-15T15:56:19.849Z,43.45
2023-02-15T15:58:56.970Z,43.80
2023-02-15T16:01:29.985Z,42.78
2023-02-15T16:04:01.837Z,41.92
2023-02-15T16:06:39.721Z,42.97
2023-02-15T16:09:21.581Z,38.05
2023-02-15T16:11:55.068Z,36.85
2023-02-15T16:14:29.252Z,38.80
2023-02-15T16:17:02.755Z,42.03
2023-02-15T16:19:37.127Z,38.42
2023-02-15T16:22:08.719Z,39.22
2023-02-15T16:24:54.738Z,37.30
2023-02-15T16:27:37.249Z,39.33
2023-02-15T16:30:25.598Z,40.28
2023-02-15T16:32:57.449Z,39.50
2023-02-15T16:35:25.997Z,42.53
2023-02-15T16:37:55.380Z,42.35
2023-02-15T16:40:37.358Z,43.65
2023-02-15T16:43:09.895Z,42.47
2023-02-15T16:45:40.793Z,43.83
2023-02-15T16:48:16.511Z,43.10
2023-02-15T16:50:53.188Z,42.22
2023-02-15T16:53:27.108Z,41.83
2023-02-15T16:56:03.506Z,41.40
2023-02-15T16:58:44.715Z,39.40
2023-02-15T17:01:17.128Z,40.58
2023-02-15T17:03:50.197Z,41.45
2023-02-15T17:06:28.310Z,39.55
2023-02-15T17:09:06.180Z,41.90
2023-02-15T17:11:40.082Z,39.90
2023-02-15T17:14:10.467Z,39.75
2023-02-15T17:16:55.624Z,38.85
2023-02-15T17:19:28.117Z,40.97
2023-02-15T17:22:00.715Z,39.15
2023-02-15T17:24:40.932Z,40.38
2023-02-15T17:27:18.760Z,38.03
2023-02-15T17:29:53.955Z,40.53
2023-02-15T17:32:26.765Z,42.17
2023-02-15T17:35:01.557Z,39.25
2023-02-15T17:37:48.777Z,39.22
2023-02-15T17:40:30.524Z,38.05
2023-02-15T17:42:58.850Z,39.30
2023-02-15T17:45:34.222Z,39.05
2023-02-15T17:48:06.842Z,40.28
2023-02-15T17:50:34.410Z,39.03
2023-02-15T17:53:02.680Z,37.67
2023-02-15T17:55:45.809Z,37.88
2023-02-15T17:58:16.046Z,40.45
2023-02-15T18:01:02.314Z,41.15
2023-02-15T18:03:55.348Z,38.88
2023-02-15T18:06:42.725Z,39.83
2023-02-15T18:09:30.363Z,37.97
2023-02-15T18:12:02.765Z,39.45
2023-02-15T18:14:32.008Z,37.65
2023-02-15T18:17:00.787Z,37.63
2023-02-15T18:19:29.628Z,38.35
2023-02-15T18:21:59.776Z,34.92
2023-02-15T18:24:28.318Z,38.35
2023-02-15T18:26:56.860Z,40.00
2023-02-15T18:29:25.486Z,36.00
2023-02-15T18:31:55.967Z,37.78
2023-02-15T18:34:30.277Z,36.10
2023-02-15T18:37:01.917Z,38.10
2023-02-15T18:39:40.213Z,38.53
2023-02-15T18:42:21.492Z,40.25
2023-02-15T18:44:50.599Z,38.35
2023-02-15T18:47:19.248Z,38.92
2023-02-15T18:49:46.500Z,37.22
2023-02-15T18:52:18.552Z,35.58
2023-02-15T18:54:46.959Z,37.25
2023-02-15T18:57:16.645Z,37.50
2023-02-15T18:59:44.438Z,36.63
2023-02-15T19:02:17.187Z,38.00
2023-02-15T19:04:45.502Z,36.28
2023-02-15T19:07:20.267Z,36.65
2023-02-15T19:09:52.142Z,37.92
2023-02-15T19:12:19.747Z,41.15
2023-02-15T19:14:47.209Z,43.15
2023-02-15T19:17:18.934Z,43.83
2023-02-15T19:19:46.924Z,40.72
2023-02-15T19:22:16.242Z,40.88
2023-02-15T19:24:46.979Z,41.05
2023-02-15T19:27:26.157Z,37.08
2023-02-15T19:29:56.728Z,37.85
2023-02-15T19:32:24.790Z,38.50
2023-02-15T19:34:52.061Z,40.20
2023-02-15T19:37:26.389Z,40.17
2023-02-15T19:39:53.941Z,37.33
2023-02-15T19:42:24.200Z,37.63
2023-02-15T19:44:52.976Z,37.15
2023-02-15T19:47:22.349Z,37.00
2023-02-15T19:49:50.785Z,37.92
2023-02-15T19:52:23.193Z,38.95
2023-02-15T19:54:50.505Z,37.00
2023-02-15T19:57:19.230Z,40.00
2023-02-15T19:59:46.989Z,38.65
2023-02-15T20:02:19.161Z,38.03
2023-02-15T20:04:46.607Z,38.58
2023-02-15T20:07:31.064Z,37.83
2023-02-15T20:10:00.285Z,37.03
2023-02-15T20:12:30.756Z,36.80
2023-02-15T20:15:00.418Z,38.38
2023-02-15T20:17:28.258Z,36.47
2023-02-15T20:19:57.076Z,36.78
2023-02-15T20:22:27.882Z,41.00
2023-02-15T20:24:57.928Z,40.30
2023-02-15T20:27:27.269Z,38.47
2023-02-15T20:29:56.952Z,37.00
2023-02-15T20:32:25.487Z,35.53
2023-02-15T20:34:53.397Z,38.42
2023-02-15T20:37:34.159Z,36.08
2023-02-15T20:40:03.883Z,35.30
2023-02-15T20:42:31.938Z,38.05
2023-02-15T20:45:00.305Z,37.03
2023-02-15T20:47:29.654Z,36.28
2023-02-15T20:50:00.007Z,36.80
2023-02-15T20:52:29.402Z,36.88
2023-02-15T20:54:59.746Z,38.10
2023-02-15T20:57:28.877Z,36.75
2023-02-15T20:59:57.936Z,37.50
2023-02-15T21:02:26.872Z,36.47
2023-02-15T21:04:55.666Z,36.17
2023-02-15T21:07:24.022Z,37.13
2023-02-15T21:09:54.469Z,36.70
2023-02-15T21:12:23.733Z,36.85
2023-02-15T21:14:52.391Z,36.15
2023-02-15T21:17:19.319Z,36.45
2023-02-15T21:19:47.760Z,34.78
2023-02-15T21:22:16.665Z,36.47
2023-02-15T21:24:51.577Z,32.78
2023-02-15T21:27:19.999Z,38.45
2023-02-15T21:29:47.238Z,35.90
2023-02-15T21:32:14.951Z,35.03
2023-02-15T21:34:42.438Z,33.58
2023-02-15T21:37:28.412Z,36.08
2023-02-15T21:39:57.259Z,34.90
2023-02-15T21:42:41.578Z,33.55
2023-02-15T21:45:34.614Z,31.60
2023-02-15T21:48:03.375Z,32.17
2023-02-15T21:50:46.321Z,33.05
2023-02-15T21:53:22.559Z,33.50
2023-02-15T21:55:51.487Z,34.63
2023-02-15T21:58:21.962Z,34.42
2023-02-15T22:00:51.680Z,31.88
2023-02-15T22:03:20.454Z,32.42
2023-02-15T22:05:48.416Z,33.15
2023-02-15T22:08:20.222Z,32.63
2023-02-15T22:10:48.345Z,31.63
2023-02-15T22:13:23.557Z,28.58
2023-02-15T22:15:51.403Z,25.80
2023-02-15T22:18:24.013Z,27.95
2023-02-15T22:20:51.900Z,27.30
2023-02-15T22:23:24.674Z,27.67
2023-02-15T22:25:55.290Z,28.90
2023-02-15T22:28:29.461Z,28.02
2023-02-15T22:30:59.540Z,28.25
2023-02-15T22:33:32.334Z,28.35
2023-02-15T22:36:01.811Z,27.75
2023-02-15T22:38:30.798Z,27.00
2023-02-15T22:41:04.364Z,27.75
2023-02-15T22:43:38.981Z,28.77
2023-02-15T22:46:14.804Z,29.83
2023-02-15T22:48:43.591Z,28.27
2023-02-15T22:51:14.887Z,28.10
2023-02-15T22:53:43.059Z,28.02
2023-02-15T22:56:20.243Z,27.13
2023-02-15T22:58:50.450Z,27.48
2023-02-15T23:01:30.557Z,28.73
2023-02-15T23:03:58.602Z,27.98
2023-02-15T23:06:28.997Z,28.60
2023-02-15T23:08:57.216Z,27.45
2023-02-15T23:11:25.295Z,27.75
2023-02-15T23:13:52.329Z,27.23
2023-02-15T23:16:21.948Z,27.52
2023-02-15T23:18:49.459Z,27.33
2023-02-15T23:21:33.694Z,28.23
2023-02-15T23:24:23.062Z,24.88
2023-02-15T23:26:52.049Z,24.60
2023-02-15T23:29:23.790Z,25.27
2023-02-15T23:31:53.613Z,27.20
2023-02-15T23:34:30.801Z,26.17
2023-02-15T23:36:59.558Z,27.02
2023-02-15T23:39:44.140Z,24.92
2023-02-15T23:42:31.894Z,28.38
2023-02-15T23:45:00.636Z,26.58
2023-02-15T23:47:49.411Z,26.90
2023-02-15T23:50:21.809Z,28.05
2023-02-15T23:52:50.854Z,25.60
2023-02-15T23:55:19.637Z,27.70
2023-02-15T23:57:48.126Z,26.60
